Eagle River, WI

10:43 AM CDT on April 28, 2017 (GMT -0500)
The Ridge | | Change Station

Elev 1677 ft 45.94 °N, 89.16 °W | Updated 11 seconds ago

Overcast
Overcast
32.0 °F
Feels Like 32 °F
N
0.0
Wind Variable Wind from SSW
Gusts 0.0 mph

Today
High -- | Low -- °F
--% Chance of Precip.
Yesterday
High -- | Low -- °F
Precip. -- in
Pressure 29.83 in
Visibility 10.0 miles
Clouds Overcast 2200 ft
Windchill 32 °F
Dew Point 24 °F
Humidity 71%
Rainfall 0.00 in
Snow Depth Not available.
5:48 AM 8:01 PM
Waxing Crescent, 7% visible
METAR KEGV 281535Z AUTO 28009KT 10SM OVC022 M01/M05 A2983 RMK AO2 T10061054
Pressure 29.83 in
Visibility 10.0 miles
Clouds Overcast 2200 ft
Windchill 32 °F
Dew Point 24 °F
Humidity 71%
Rainfall 0.00 in
Snow Depth Not available.
5:48 AM 8:01 PM
Waxing Crescent, 7% visible
METAR KEGV 281535Z AUTO 28009KT 10SM OVC022 M01/M05 A2983 RMK AO2 T10061054

Get Severe Weather Alerts

Thanks for signing up!

Be on the lookout for a verification email in your inbox.

You'll start receiving the daily forecast at 8 AM.

×

10-Day Weather Forecast

Almanac

Astronomy

Apr. 28, 2017 Rise Set
Actual Time
Civil Twilight
Nautical Twilight
Astronomical Twilight
Moon
Length of Visible Light
Length of Day
Tomorrow will be .
, % of the Moon is Illuminated

Today's Extremes

State Highs State Lows

Community

WunderPhotos

WunderBlog® & News

Nearby

Air Quality

  Air Quality AQ Index Pollutant
Not available.

Snow Depth

Station Depth Elevation

Earthquake Activity

City Distance Mag. Time & Date
Minimum magnitude displayed is 2.5.

Coastal Water Temperatures

Place Temperature

Stations

Nearby Weather Stations

Station Location Temp. Windchill Dew Point Humidity Wind Precip. Elev Updated Type
                   

Watches & Warnings

There are currently no watches in effect.